Archival Weather

Chicago O'hare International

Chicago O'hare International, Illinois (KORD)

Report from: Saturday, May 14, 2022 9:51 AM CDT
Current time: Monday, May 23, 2022 3:50 AM CDT

Current weather
Weather history
Weather forecast

Temperature24.4°C (75.9°F)
Dew point15.0°C (59.0°F)
Winds 7 kts (3.6 m/s, 8.1 mph) North-Northeast (20°)
Visibility10 mi. (16.1 km)
Clouds Few clouds 10,000 ft. (3,048 m)
Scattered clouds 12,000 ft. (3,658 m)
Ceiling: Broken clouds 24,000 ft. (7,315 m)
Altimeter29.94 in.Hg (1014 mB)
Relative humidity56 %
Density altitude1,305 ft. (398 m)
Sea-level pressure101.3 kPa (1013 mB, 29.92 in.Hg)
Remarks Automated weather observing station with precipitation discriminator
Pressure rising, then falling
Flight conditions Visual Meteorological Conditions
Raw dataKORD 141451Z 02007KT 10SM FEW100 SCT120 BKN240 24/15 A2994 RMK AO2 SLP132 T02440150 50003
An error has occurred. This application may no longer respond until reloaded. Reload 🗙